Weather reports worldwide

Advertisment
Neuhaus am Rennweg, Germany (10557): temperature & dewpoint: 01.08.2020 03:00:00 - 07.08.2020 03:00:00 (CEST)Neuhaus am Rennweg, Germany (10557): temperature 5cm & temperature -5cm: 01.08.2020 03:00:00 - 07.08.2020 03:00:00 (CEST)Neuhaus am Rennweg, Germany (10557): temperature -20cm & temperature -100cm: 01.08.2020 03:00:00 - 07.08.2020 03:00:00 (CEST)Neuhaus am Rennweg, Germany (10557): wind speed & gusts: 01.08.2020 03:00:00 - 07.08.2020 03:00:00 (CEST)Neuhaus am Rennweg, Germany (10557): wind direction: 01.08.2020 03:00:00 - 07.08.2020 03:00:00 (CEST)Neuhaus am Rennweg, Germany (10557): visibility: 01.08.2020 03:00:00 - 07.08.2020 03:00:00 (CEST)Neuhaus am Rennweg, Germany (10557): precipitation: 01.08.2020 03:00:00 - 07.08.2020 03:00:00 (CEST)
Date & Time tt [°C] td [°C] tt 5cm [°C] tt -5cm [°C] tt -20cm [°C] tt -100cm [°C] ff [km/h] ff [kn] fx [km/h] fx [kn] dd vv [km] rr [mm]
07.08.2020 03:00:00 16,5 9,2 11,0 15,7 18,7 15,0 5 3 11 6 S 68 0,0
07.08.2020 02:00:00 16,9 8,9 11,3 16,4 19,1 15,0 6 3 11 6 SSE 53 0,0
07.08.2020 01:00:00 17,5 7,8 13,0 17,1 19,4 15,0 4 2 13 7 E 51 0,0
07.08.2020 00:00:00 18,6 7,2 15,6 17,9 19,7 15,0 7 4 13 7 ENE 60 0,0
06.08.2020 23:00:00 19,1 6,8 16,0 18,9 20,0 15,0 5 3 13 7 NE 54 0,0
06.08.2020 22:00:00 19,1 6,8 15,5 20,2 20,3 15,1 6 3 11 6 ENE 55 0,0
06.08.2020 21:00:00 20,5 7,0 16,8 21,8 20,3 15,1 5 3 14 7 ENE 59 0,0
06.08.2020 20:00:00 22,7 7,1 20,7 23,6 20,2 15,1 7 4 16 9 ENE 63 0,0
06.08.2020 19:00:00 24,0 7,9 25,7 25,3 19,9 15,1 9 5 18 10 ENE 49 0,0
06.08.2020 18:00:00 24,3 7,1 26,8 26,8 19,4 15,1 10 5 18 10 ENE 75 0,0
06.08.2020 17:00:00 24,3 6,9 28,3 27,6 18,8 15,1 10 5 18 10 SE 52 0,0
06.08.2020 16:00:00 23,7 6,7 28,8 27,7 18,1 15,1 12 6 22 12 NNW 74 0,0
06.08.2020 15:00:00 23,4 6,1 28,1 27,2 17,4 15,1 10 5 19 10 NNE 63 0,0
06.08.2020 14:00:00 22,5 5,8 28,0 26,1 16,6 15,1 10 5 19 11 NW 75 0,0
06.08.2020 13:00:00 22,2 6,3 27,2 24,3 16,0 15,1 9 5 22 12 NE 65 0,0
06.08.2020 12:00:00 21,3 6,8 25,4 22,0 15,6 15,1 8 4 22 12 NNE 53 0,0
06.08.2020 11:00:00 20,8 8,2 23,9 18,6 15,4 15,1 9 5 22 12 ESE 73 0,0
06.08.2020 10:00:00 19,2 7,4 17,0 15,6 15,3 15,1 9 5 17 9 NNE 64 0,0
06.08.2020 09:00:00 18,7 8,8 21,2 15,7 15,3 15,1 0 0 6 4 N 49 0,0
06.08.2020 08:00:00 16,9 10,2 15,6 13,0 15,5 15,1 0 0 5 3 N 45 0,0
06.08.2020 07:00:00 14,1 8,8 9,9 11,6 15,7 15,1 4 2 7 4 SW 62 0,0
06.08.2020 06:00:00 13,2 8,1 8,0 11,8 16,0 15,1 6 3 9 5 W 69 0,0
06.08.2020 05:00:00 13,4 8,3 7,6 12,2 16,3 15,1 6 3 11 6 SW 60 0,0
06.08.2020 04:00:00 13,3 7,9 7,6 12,6 16,6 15,1 7 4 10 6 SW 75 0,0
06.08.2020 03:00:00 13,7 8,0 7,8 13,1 16,9 15,1 6 3 12 7 SSW 75 0,0
06.08.2020 02:00:00 13,9 7,7 8,2 13,7 17,2 15,2 9 5 13 7 SW 61 0,0
06.08.2020 01:00:00 13,8 7,1 8,6 14,4 17,5 15,2 9 5 15 8 SSW 66 0,0
06.08.2020 00:00:00 14,1 6,5 9,7 15,2 17,8 15,2 8 5 16 9 S 75 0,0
05.08.2020 23:00:00 15,0 5,2 9,8 16,2 18,1 15,2 6 3 9 5 SSW 74 0,0
05.08.2020 22:00:00 15,1 5,3 10,6 17,5 18,2 15,2 5 3 8 4 SW 62 0,0
05.08.2020 21:00:00 16,6 6,7 12,4 19,1 18,2 15,2 5 3 9 5 SW 67 0,0
05.08.2020 20:00:00 19,8 7,3 16,6 20,6 18,0 15,2 6 4 12 6 SSE 58 0,0
05.08.2020 19:00:00 20,9 5,9 23,3 21,7 17,7 15,2 4 2 16 9 E 50 0,0
05.08.2020 18:00:00 20,4 5,8 25,0 22,1 17,4 15,2 5 3 13 7 N 71 0,0
05.08.2020 17:00:00 19,7 7,9 22,8 21,7 17,0 15,2 8 5 22 12 SE 49 0,0
05.08.2020 16:00:00 19,3 7,2 21,4 22,6 16,6 15,2 4 2 21 11 E 60 0,0
05.08.2020 15:00:00 19,5 8,0 24,7 21,1 16,2 15,2 8 5 14 8 S 56 0,0
05.08.2020 14:00:00 17,9 8,0 18,7 20,1 15,8 15,2 3 2 16 9 W 72 0,0
05.08.2020 13:00:00 17,6 9,0 18,7 21,1 15,3 15,2 8 4 22 12 WNW 73 0,0
05.08.2020 12:00:00 18,2 7,5 23,0 18,9 14,9 15,2 6 3 18 10 SSW 61 0,0
05.08.2020 11:00:00 17,3 7,4 20,8 17,5 14,8 15,2 11 6 23 12 WSW 55 0,0
05.08.2020 10:00:00 16,1 8,2 15,2 14,2 14,7 15,2 13 7 24 13 S 65 0,0
05.08.2020 09:00:00 14,6 9,7 16,2 14,3 14,7 15,2 10 5 16 9 SSW 75 0,0
05.08.2020 08:00:00 12,4 9,9 11,8 11,8 14,9 15,2 9 5 13 7 SSW 42 0,0
05.08.2020 07:00:00 10,0 9,5 8,6 10,4 15,1 15,2 6 4 13 7 SSW 19 0,0
05.08.2020 06:00:00 9,6 8,9 7,1 10,6 15,4 15,2 9 5 14 8 SSW 23 0,0
05.08.2020 05:00:00 9,5 8,4 6,1 11,0 15,7 15,2 7 4 9 5 SSW 44 0,0
05.08.2020 04:00:00 9,9 8,2 6,1 11,5 16,0 15,2 7 4 11 6 SSW 51 0,0
05.08.2020 03:00:00 11,3 8,0 8,6 12,1 16,2 15,3 6 3 14 8 SW 60 0,0
05.08.2020 02:00:00 11,1 8,1 7,8 12,7 16,5 15,3 9 5 14 8 WSW 56 0,0
05.08.2020 01:00:00 10,6 8,7 7,1 13,4 16,8 15,3 6 4 9 5 SW 54 0,0
05.08.2020 00:00:00 10,8 8,8 7,9 14,1 17,0 15,3 5 3 7 4 WSW 62 0,0
04.08.2020 23:00:00 12,0 8,7 10,1 15,0 17,2 15,3 6 3 9 5 WSW 66 0,0
04.08.2020 22:00:00 11,6 7,9 9,8 15,5 17,3 15,3 0 0 3 2 N 67 0,0
04.08.2020 21:00:00 12,7 8,7 10,0 16,9 17,4 15,3 0 0 8 5 N 67 0,0
04.08.2020 20:00:00 14,8 9,2 13,6 18,0 17,3 15,3 3 2 13 7 NE 67 0,0
04.08.2020 19:00:00 15,8 7,6 16,0 18,9 17,2 15,3 10 5 19 10 NE 52 0,0
04.08.2020 18:00:00 15,3 7,6 16,0 19,2 17,0 15,3 7 4 17 9 N 75 0,0
04.08.2020 17:00:00 15,0 7,7 16,5 19,5 16,7 15,3 8 4 23 12 N 75 0,0
04.08.2020 16:00:00 14,9 8,0 16,0 19,7 16,4 15,3 12 7 35 19 N 56 0,0
04.08.2020 15:00:00 15,4 8,4 18,4 18,3 16,2 15,3 14 8 26 14 N 46 0,0
04.08.2020 14:00:00 14,6 7,7 16,1 18,7 15,9 15,3 20 11 30 16 NNW 60 0,0
04.08.2020 13:00:00 14,0 8,4 15,7 18,0 15,6 15,3 18 10 29 16 N 55 0,0
04.08.2020 12:00:00 13,4 9,1 14,7 17,4 15,4 15,3 14 8 28 15 N 63 0,0
04.08.2020 11:00:00 12,8 9,3 15,0 15,3 15,4 15,3 16 9 23 13 N 46 0,0
04.08.2020 10:00:00 11,3 9,1 12,5 13,7 15,4 15,3 15 8 22 12 NNW 53 0,0
04.08.2020 09:00:00 10,4 8,7 11,2 12,7 15,5 15,3 11 6 21 11 N 38 0,0
04.08.2020 08:00:00 9,8 8,0 10,4 12,2 15,7 15,3 9 5 18 10 NNE 39 0,0
04.08.2020 07:00:00 9,3 7,5 9,2 11,7 16,0 15,3 10 6 21 11 N 46 0,0
04.08.2020 06:00:00 9,1 7,3 8,5 11,8 16,2 15,3 15 8 23 12 N 45 0,0
04.08.2020 05:00:00 9,5 7,2 8,7 12,1 16,5 15,3 17 9 27 15 N 53 0,0
04.08.2020 04:00:00 9,9 7,3 9,0 12,4 16,8 15,3 16 9 29 15 N 63 0,0
04.08.2020 03:00:00 10,3 7,0 9,4 12,8 17,1 15,2 15 8 25 13 N 56 0,0
04.08.2020 02:00:00 10,3 7,3 9,5 13,2 17,4 15,2 14 8 23 12 N 54 0,0
04.08.2020 01:00:00 11,1 7,2 10,0 13,8 17,7 15,2 12 7 22 12 N 56 0,0
04.08.2020 00:00:00 11,2 7,7 10,0 14,4 17,9 15,2 11 6 20 11 N 59 0,0
03.08.2020 23:00:00 11,6 7,9 10,6 15,1 18,2 15,2 9 5 21 11 NNE 64 0,0
03.08.2020 22:00:00 11,9 8,3 10,8 16,1 18,4 15,2 9 5 18 10 NNE 70 0,0
03.08.2020 21:00:00 12,9 8,6 11,9 17,3 18,5 15,2 9 5 18 10 NNE 60 0,0
03.08.2020 20:00:00 14,5 8,6 14,4 18,6 18,5 15,2 11 6 24 13 NNE 54 0,0
03.08.2020 19:00:00 14,8 8,9 15,3 19,6 18,4 15,2 13 7 29 15 NE 42 0,0
03.08.2020 18:00:00 15,8 9,8 19,4 20,1 18,2 15,2 13 7 27 15 NNE 59 0,0
03.08.2020 17:00:00 15,1 10,4 18,3 21,1 17,9 15,2 15 8 28 15 NNE 42 0,0
03.08.2020 16:00:00 15,8 10,7 19,6 21,1 17,6 15,2 15 8 24 13 NNE 59 0,0
03.08.2020 15:00:00 15,0 11,3 20,2 20,2 17,3 15,2 11 6 19 11 NNE 51 0,0
03.08.2020 14:00:00 14,1 11,0 16,9 18,8 17,1 15,2 9 5 22 12 NNE 37 0,0
03.08.2020 13:00:00 13,1 11,2 15,2 17,1 17,1 15,2 10 5 16 9 N 28 0,0
03.08.2020 12:00:00 12,1 10,8 13,0 16,2 17,1 15,2 10 6 20 11 N 15 0,0
03.08.2020 11:00:00 12,5 11,4 13,7 16,3 17,1 15,2 13 7 21 12 NNE 18 0,0
03.08.2020 10:00:00 12,0 11,5 13,1 15,3 17,2 15,1 13 7 21 11 NNE 7 0,0
03.08.2020 09:00:00 12,1 11,9 13,1 14,8 17,3 15,1 13 7 22 12 NNE 5 0,0
03.08.2020 08:00:00 11,9 11,8 12,3 14,8 17,5 15,1 12 6 23 12 NNE 0,2 0,0
03.08.2020 07:00:00 12,0 11,9 12,2 14,8 17,7 15,1 13 7 24 13 NNE 0,1 0,0
03.08.2020 06:00:00 12,0 11,7 12,2 15,0 17,8 15,1 13 7 23 13 NNE 1,2 0,0
03.08.2020 05:00:00 12,2 11,9 12,3 15,2 18,0 15,1 16 8 26 14 N 3,0 0,0
03.08.2020 04:00:00 12,5 12,4 12,7 15,3 18,2 15,1 14 8 24 13 N 0,1 0,0
03.08.2020 03:00:00 12,8 12,6 12,9 15,4 18,5 15,1 13 7 23 13 N 0,1 0,0
03.08.2020 02:00:00 12,8 12,0 11,6 15,5 18,7 15,1 8 5 13 7 N 12 0,0
03.08.2020 01:00:00 12,8 11,6 11,7 16,1 19,0 15,1 6 3 11 6 N 17 0,0
03.08.2020 00:00:00 13,5 12,8 13,0 16,8 19,2 15,1 7 4 19 11 NNE 17 0,0
02.08.2020 23:00:00 14,2 13,4 13,9 17,3 19,4 15,0 10 6 18 10 N 4,8 0,1
02.08.2020 22:00:00 14,6 13,7 14,1 17,9 19,5 15,0 9 5 13 7 NNE 20 0,0
02.08.2020 21:00:00 15,1 14,6 15,2 18,5 19,6 15,0 8 4 14 8 NNE 4,6 0,0
02.08.2020 20:00:00 15,7 15,1 15,7 19,2 19,7 15,0 10 5 18 10 N 7 0,0
02.08.2020 19:00:00 16,1 15,3 16,4 19,8 19,8 15,0 11 6 20 11 N 17 0,0
02.08.2020 18:00:00 16,2 15,4 17,6 19,6 19,9 15,0 14 7 24 13 NNW 17 0,1
02.08.2020 17:00:00 15,7 15,1 16,2 19,3 20,0 15,0 12 6 19 10 N 6 0,2
02.08.2020 16:00:00 15,5 14,8 16,0 19,6 20,1 15,0 5 3 16 9 N 24 0,9
02.08.2020 15:00:00 16,1 15,1 15,7 21,2 20,0 15,0 10 5 22 12 NW 1,0 17,6
02.08.2020 14:00:00 18,4 15,7 19,5 22,7 19,8 14,9 7 4 14 8 NE 32 0,0
02.08.2020 13:00:00 18,6 15,8 21,4 21,9 19,7 14,9 8 4 14 8 NE 30 0,0
02.08.2020 12:00:00 17,6 15,4 18,7 20,2 19,7 14,9 8 4 17 9 NNE 36 1,1
02.08.2020 11:00:00 16,7 15,0 16,2 19,7 19,7 14,9 5 3 18 10 NNE 5 1,2
02.08.2020 10:00:00 18,3 13,7 18,8 20,0 19,8 14,9 13 7 32 17 N 48 0,0
02.08.2020 09:00:00 20,6 11,7 21,8 19,3 19,9 14,9 5 3 9 5 SW 51 0,0
02.08.2020 08:00:00 18,7 12,3 18,0 18,4 20,1 14,9 6 3 9 5 SW 66 0,0
02.08.2020 07:00:00 18,0 11,9 16,6 17,9 20,4 14,9 0 0 13 7 N 75 0,0
02.08.2020 06:00:00 17,0 12,1 14,3 17,9 20,7 14,9 9 5 13 7 N 57 0,0
02.08.2020 05:00:00 18,0 10,1 13,4 18,4 21,0 14,9 7 4 8 4 N 75 0,0
02.08.2020 04:00:00 19,0 10,0 15,0 18,8 21,3 14,9 3 2 7 4 NE 69 0,0
02.08.2020 03:00:00 18,7 10,8 14,7 19,4 21,6 14,8 2 1 9 5 ENE 68 0,0
02.08.2020 02:00:00 18,4 12,0 15,2 20,1 22,0 14,8 5 3 13 7 ENE 50 0,0
02.08.2020 01:00:00 18,9 12,9 17,1 20,8 22,3 14,8 8 4 16 9 NE 51 0,0
02.08.2020 00:00:00 18,8 13,7 17,6 21,6 22,7 14,8 9 5 18 10 NNE 53 0,0
01.08.2020 23:00:00 19,1 14,0 18,3 22,5 23,0 14,8 10 6 25 13 N 52 0,0
01.08.2020 22:00:00 19,8 14,4 18,8 23,6 23,3 14,8 16 8 23 13 N 61 0,0
01.08.2020 21:00:00 20,4 15,0 18,1 25,3 23,4 14,8 15 8 36 20 N 45 0,2
01.08.2020 20:00:00 24,1 12,6 23,7 27,3 23,3 14,8 16 9 37 20 N 50 0,0
01.08.2020 19:00:00 26,5 12,1 27,2 29,0 23,1 14,8 19 10 32 18 N 59 0,0
01.08.2020 18:00:00 28,8 9,9 31,5 30,3 22,7 14,8 6 3 19 10 NNE 70 0,0
01.08.2020 17:00:00 28,4 10,3 31,8 30,9 22,2 14,8 6 4 18 10 NNE 48 0,0
01.08.2020 16:00:00 29,4 9,9 33,8 31,9 21,5 14,8 11 6 25 13 N 42 0,0
01.08.2020 15:00:00 28,8 9,5 34,2 31,6 20,8 14,8 11 6 22 12 WNW 75 0,0
01.08.2020 14:00:00 28,4 9,0 36,6 30,5 20,1 14,7 10 6 26 14 WNW 48 0,0
01.08.2020 13:00:00 27,6 9,8 33,1 28,8 19,5 14,7 12 7 26 14 WSW 47 0,0
01.08.2020 12:00:00 26,9 9,5 31,3 26,3 19,1 14,7 9 5 23 12 NNW 42 0,0
01.08.2020 11:00:00 25,7 10,2 30,3 22,9 18,9 14,7 9 5 16 9 NNW 68 0,0
01.08.2020 10:00:00 23,7 10,3 22,7 19,9 18,8 14,7 11 6 17 9 S 73 0,0
01.08.2020 09:00:00 22,5 10,0 25,0 19,6 18,9 14,7 10 6 14 8 SSW 58 0,0
01.08.2020 08:00:00 20,3 9,8 21,1 17,3 19,1 14,7 9 5 16 8 SSW 51 0,0
01.08.2020 07:00:00 17,7 9,6 15,3 16,0 19,4 14,7 8 5 14 7 SSW 75 0,0
01.08.2020 06:00:00 16,7 9,3 10,9 16,2 19,8 14,7 9 5 15 8 SW 47 0,0
01.08.2020 05:00:00 16,2 9,2 10,5 16,8 20,1 14,7 8 5 14 7 SW 65 0,0
01.08.2020 04:00:00 15,9 8,8 10,8 17,4 20,5 14,7 6 4 11 6 SSW 67 0,0
01.08.2020 03:00:00 16,2 8,8 12,6 18,1 20,9 14,7 3 2 9 5 S 54 0,0

tt = temperature
td = dewpoint
tt 5cm = temperature 5cm
tt -5cm = temperature -5cm
tt -20cm = temperature -20cm
tt -100cm = temperature -100cm
ff = wind speed
fx = gusts
dd = wind direction
vv = visibility
rr = precipitation

Next stations